Terminal Aerodrome Forecast
Issued by NWS Dodge City, KS

Home | Current Version | Previous Version | Graphics & Text | Print | Product List | Glossary Off
Versions: 1 2 3 4 5 6 7 8 9 10 11 12 13 14 15 16 17 18 19 20 21 22 23 24 25

623
FTUS43 KDDC 041720
TAFDDC
TAF
KDDC 041720Z 0418/0518 27014KT P6SM SKC
     FM041900 27013G23KT P6SM SKC
     FM050000 VRB04KT P6SM BKN250
     FM050600 08008KT P6SM OVC200
     FM051200 08008KT P6SM OVC100
     FM051500 03009KT P6SM BKN050 OVC090=

USA.gov is the U.S. government's official web portal to all federal, state and local government web resources and services.